Time;durP1;ratioP1;P1;durP2;ratioP2;P2;SDS_P1;SDS_P2;PMS_P1;PMS_P2;Temp;Humidity;BMP_temperature;BMP_pressure;BME280_temperature;BME280_humidity;BME280_pressure;Samples;Min_cycle;Max_cycle;Signal;HPM_P1;HPM_P2
2022/12/06 00:02:10;;;;;;;9.77;4.15;;;5.20;99.90;;;;;;5103744;28;20042;-84
2022/12/06 00:04:35;;;;;;;7.70;4.43;;;6.80;99.90;;;;;;5107077;28;20039;-84
2022/12/06 00:07:01;;;;;;;8.85;4.30;;;5.30;99.90;;;;;;5103115;28;20093;-84
2022/12/06 00:09:29;;;;;;;8.85;4.63;;;5.30;99.90;;;;;;5102698;28;20047;-85
2022/12/06 00:11:58;;;;;;;7.25;4.00;;;6.60;99.90;;;;;;5104939;28;20080;-84
2022/12/06 00:14:24;;;;;;;9.77;4.40;;;5.30;99.90;;;;;;5103118;28;20050;-85
2022/12/06 00:16:50;;;;;;;7.50;4.07;;;5.80;99.90;;;;;;5103616;28;20039;-86
2022/12/06 00:19:18;;;;;;;5.55;3.80;;;5.30;99.90;;;;;;5108391;28;20050;-86
2022/12/06 00:21:46;;;;;;;8.18;3.50;;;5.20;99.90;;;;;;5107952;28;20093;-86
2022/12/06 00:24:14;;;;;;;10.57;4.53;;;5.90;99.90;;;;;;5106044;28;20055;-85
2022/12/06 00:26:42;;;;;;;6.53;3.53;;;6.10;99.90;;;;;;5105856;28;20093;-85
2022/12/06 00:29:11;;;;;;;10.45;3.70;;;5.20;99.90;;;;;;5107131;28;20043;-85
2022/12/06 00:31:36;;;;;;;7.22;3.70;;;5.10;99.90;;;;;;5091995;28;20454;-85
2022/12/06 00:34:02;;;;;;;12.88;4.20;;;5.10;99.90;;;;;;5105832;28;20150;-85
2022/12/06 00:36:31;;;;;;;8.27;3.45;;;5.20;99.90;;;;;;5106545;28;20039;-85
2022/12/06 00:39:04;;;;;;;8.52;4.10;;;5.30;99.90;;;;;;5108204;28;20039;-85
2022/12/06 00:41:30;;;;;;;8.57;4.00;;;5.60;99.90;;;;;;5104903;28;20470;-85
2022/12/06 00:43:56;;;;;;;7.43;3.63;;;5.20;99.90;;;;;;5106894;28;20131;-84
2022/12/06 00:46:24;;;;;;;9.25;3.75;;;6.40;99.90;;;;;;5108268;28;20154;-85
2022/12/06 00:48:51;;;;;;;8.68;3.72;;;5.10;99.90;;;;;;5088081;28;20174;-85
2022/12/06 00:51:18;;;;;;;8.27;3.97;;;5.50;99.90;;;;;;5108875;28;20066;-85
2022/12/06 00:53:44;;;;;;;10.27;3.88;;;5.20;99.90;;;;;;5106251;28;20043;-84
2022/12/06 00:56:10;;;;;;;7.85;3.75;;;5.10;99.90;;;;;;5102288;28;20044;-85
2022/12/06 00:58:35;;;;;;;8.05;3.88;;;5.10;99.90;;;;;;5106800;27;20067;-85
2022/12/06 01:01:20;;;;;;;8.70;3.70;;;5.10;99.90;;;;;;5099720;28;20709;-85
2022/12/06 01:03:50;;;;;;;15.57;4.10;;;5.10;99.90;;;;;;5105392;27;20040;-86
2022/12/06 01:06:17;;;;;;;8.35;3.70;;;5.10;99.90;;;;;;5086420;28;20056;-83
2022/12/06 01:08:45;;;;;;;8.75;4.38;;;5.00;99.90;;;;;;5103656;28;20997;-85
2022/12/06 01:11:13;;;;;;;6.95;3.90;;;5.10;99.90;;;;;;5086633;28;20043;-85
2022/12/06 01:13:41;;;;;;;11.93;4.18;;;5.00;99.90;;;;;;5101668;28;20043;-85
2022/12/06 01:16:12;;;;;;;9.32;4.43;;;5.10;99.90;;;;;;5103464;28;20071;-85
2022/12/06 01:18:38;;;;;;;10.48;4.10;;;5.10;99.90;;;;;;5106761;28;20047;-86
2022/12/06 01:21:09;;;;;;;8.00;4.40;;;4.80;99.90;;;;;;5088813;28;20044;-84
2022/12/06 01:23:35;;;;;;;8.32;4.10;;;5.50;99.90;;;;;;5106735;28;20082;-86
2022/12/06 01:26:06;;;;;;;10.93;4.10;;;5.10;99.90;;;;;;5104566;28;20505;-85
2022/12/06 01:28:32;;;;;;;7.53;4.10;;;5.00;99.90;;;;;;5086654;28;20051;-85
2022/12/06 01:30:58;;;;;;;7.32;3.60;;;5.20;99.90;;;;;;5088024;28;20137;-85
2022/12/06 01:33:24;;;;;;;8.73;3.90;;;5.00;99.90;;;;;;5105022;28;20075;-85
2022/12/06 01:35:49;;;;;;;9.45;4.25;;;4.90;99.90;;;;;;5105465;28;20092;-85
2022/12/06 01:38:15;;;;;;;9.35;4.20;;;4.90;99.90;;;;;;5104419;28;20122;-85
2022/12/06 01:40:43;;;;;;;9.43;3.92;;;5.00;99.90;;;;;;5104798;28;20074;-85
2022/12/06 01:43:42;;;;;;;7.60;3.50;;;5.10;99.90;;;;;;5105671;28;20054;-84
2022/12/06 01:46:16;;;;;;;8.98;4.25;;;5.20;99.90;;;;;;5105534;28;20184;-84
2022/12/06 01:48:50;;;;;;;12.05;4.05;;;5.10;99.90;;;;;;5109569;28;20413;-85
2022/12/06 01:51:17;;;;;;;6.57;3.58;;;5.10;99.90;;;;;;5087044;28;20051;-86
2022/12/06 01:53:46;;;;;;;9.68;3.97;;;5.20;99.90;;;;;;5076539;28;20048;-86
2022/12/06 01:56:12;;;;;;;7.93;3.60;;;4.90;99.90;;;;;;5105111;28;20040;-85
2022/12/06 01:58:42;;;;;;;9.35;3.85;;;6.20;99.90;;;;;;5109928;28;20043;-86
2022/12/06 02:01:09;;;;;;;8.73;3.53;;;4.90;99.90;;;;;;5105030;28;20052;-84
2022/12/06 02:03:35;;;;;;;6.93;3.15;;;5.00;99.90;;;;;;5102177;28;20054;-86
2022/12/06 02:06:06;;;;;;;5.03;2.55;;;4.90;99.90;;;;;;5109211;28;20060;-85
2022/12/06 02:08:32;;;;;;;4.85;2.63;;;5.00;99.90;;;;;;5107410;28;20086;-86
2022/12/06 02:11:01;;;;;;;7.97;2.58;;;5.00;99.90;;;;;;5095525;28;20067;-86
2022/12/06 02:13:29;;;;;;;3.30;2.47;;;4.90;99.90;;;;;;5109150;28;20042;-86
2022/12/06 02:16:22;;;;;;;6.20;2.85;;;4.70;99.90;;;;;;5109665;28;20186;-86
2022/12/06 02:19:07;;;;;;;5.07;2.30;;;5.10;99.90;;;;;;5104726;28;20112;-86
2022/12/06 02:21:41;;;;;;;7.65;2.40;;;5.00;99.90;;;;;;5104647;28;20050;-85
2022/12/06 02:24:39;;;;;;;4.88;2.40;;;5.00;99.90;;;;;;5109172;28;20043;-85
2022/12/06 02:27:26;;;;;;;4.03;2.08;;;5.00;99.90;;;;;;5122841;27;20047;-85
2022/12/06 02:30:09;;;;;;;6.88;2.50;;;5.00;99.90;;;;;;5108136;28;20833;-85
2022/12/06 02:32:49;;;;;;;6.15;2.33;;;5.00;99.90;;;;;;5104709;28;20039;-85
2022/12/06 02:35:20;;;;;;;6.32;2.22;;;5.10;99.90;;;;;;5107961;28;20046;-86
2022/12/06 02:37:53;;;;;;;5.10;2.63;;;4.90;99.90;;;;;;5107249;28;20063;-85
2022/12/06 02:40:24;;;;;;;3.10;2.38;;;5.00;99.90;;;;;;5105658;28;20512;-85
2022/12/06 02:42:57;;;;;;;6.93;2.42;;;5.20;99.90;;;;;;5088832;28;20054;-86
2022/12/06 02:45:27;;;;;;;4.35;2.28;;;4.80;99.90;;;;;;5108635;28;20050;-85
2022/12/06 02:47:57;;;;;;;5.25;2.70;;;4.90;99.90;;;;;;5106185;27;20054;-85
2022/12/06 02:50:30;;;;;;;5.10;2.20;;;4.80;99.90;;;;;;5106722;27;20052;-85
2022/12/06 02:53:00;;;;;;;6.50;2.30;;;4.90;99.90;;;;;;5109871;28;20040;-85
2022/12/06 02:55:27;;;;;;;5.47;1.95;;;4.90;99.90;;;;;;5106516;28;20465;-84
2022/12/06 02:57:55;;;;;;;5.65;2.25;;;4.80;99.90;;;;;;5106923;28;20043;-86
2022/12/06 03:00:27;;;;;;;6.20;2.25;;;4.80;99.90;;;;;;5104341;28;20055;-86
2022/12/06 03:03:15;;;;;;;4.60;2.33;;;5.10;99.90;;;;;;5107118;28;20052;-85
2022/12/06 03:06:01;;;;;;;2.72;2.00;;;4.40;99.90;;;;;;5107613;28;20074;-85
2022/12/06 03:08:32;;;;;;;3.17;2.10;;;5.00;99.90;;;;;;5088657;28;20058;-86
2022/12/06 03:11:00;;;;;;;4.78;1.75;;;5.00;99.90;;;;;;5096412;28;20051;-85
2022/12/06 03:13:57;;;;;;;3.25;1.58;;;4.80;99.90;;;;;;5108614;28;20067;-85
2022/12/06 03:16:33;;;;;;;4.50;1.90;;;5.00;99.90;;;;;;5108420;28;20120;-86
2022/12/06 03:19:27;;;;;;;4.13;2.35;;;5.00;99.90;;;;;;5110915;28;20435;-85
2022/12/06 03:22:07;;;;;;;3.80;2.40;;;5.00;99.90;;;;;;5069355;28;20055;-86
2022/12/06 03:24:36;;;;;;;4.28;2.08;;;5.00;99.90;;;;;;5108606;28;20760;-86
2022/12/06 03:27:08;;;;;;;5.03;1.92;;;4.80;99.90;;;;;;5105806;28;20453;-86
2022/12/06 03:29:38;;;;;;;3.25;1.95;;;4.80;99.90;;;;;;5107086;28;20047;-86
2022/12/06 03:32:06;;;;;;;5.38;2.38;;;4.70;99.90;;;;;;5093171;28;20048;-86
2022/12/06 03:34:37;;;;;;;5.47;2.35;;;4.80;99.90;;;;;;5104892;28;20075;-86
2022/12/06 03:37:25;;;;;;;4.28;2.10;;;4.60;99.90;;;;;;5089501;28;20039;-86
2022/12/06 03:39:51;;;;;;;2.78;2.17;;;4.40;99.90;;;;;;5104131;28;20083;-87
2022/12/06 03:42:27;;;;;;;4.50;2.33;;;4.60;99.90;;;;;;5103676;28;20082;-85
2022/12/06 03:44:53;;;;;;;4.80;2.00;;;4.50;99.90;;;;;;5108847;28;20047;-85
2022/12/06 03:47:39;;;;;;;4.68;2.20;;;4.60;99.90;;;;;;5106913;28;20054;-86
2022/12/06 03:50:15;;;;;;;5.80;2.90;;;3.80;99.90;;;;;;5107640;28;20040;-85
2022/12/06 03:52:55;;;;;;;4.53;2.65;;;5.00;99.90;;;;;;5088607;28;20066;-86
2022/12/06 03:55:26;;;;;;;5.82;2.58;;;5.50;99.90;;;;;;5101125;28;20054;-85
2022/12/06 03:57:52;;;;;;;3.05;2.53;;;3.90;99.90;;;;;;5087400;28;20047;-85
2022/12/06 04:00:23;;;;;;;4.80;2.60;;;5.40;99.90;;;;;;5104206;28;20051;-86
2022/12/06 04:02:49;;;;;;;5.07;3.08;;;4.20;99.90;;;;;;5090918;28;20040;-86
2022/12/06 04:05:14;;;;;;;5.72;2.65;;;4.30;99.90;;;;;;5106300;28;20406;-86
2022/12/06 04:07:40;;;;;;;3.58;2.75;;;6.00;99.90;;;;;;5102773;28;20087;-86
2022/12/06 04:10:06;;;;;;;7.53;3.45;;;4.60;99.90;;;;;;5088299;28;20056;-85
2022/12/06 04:15:20;;;;;;;4.47;2.88;;;4.80;99.90;;;;;;5106664;28;20501;-86
2022/12/06 04:23:17;;;;;;;4.97;2.78;;;4.40;99.90;;;;;;5108086;28;20059;-86
2022/12/06 04:25:42;;;;;;;5.15;2.70;;;4.50;99.90;;;;;;5106552;28;20040;-85
2022/12/06 04:39:05;;;;;;;3.88;2.90;;;4.20;99.90;;;;;;5102567;28;20052;-84
2022/12/06 04:44:15;;;;;;;6.22;2.88;;;4.30;99.90;;;;;;5107923;28;20051;-85
2022/12/06 04:46:40;;;;;;;4.63;2.83;;;4.20;99.90;;;;;;5105448;28;20559;-85
2022/12/06 04:49:06;;;;;;;6.07;3.00;;;4.10;99.90;;;;;;5104367;28;20042;-87
2022/12/06 04:51:32;;;;;;;4.75;2.97;;;4.10;99.90;;;;;;5105660;28;20108;-86
2022/12/06 04:53:58;;;;;;;3.85;3.00;;;4.20;99.90;;;;;;5072264;28;20044;-85
2022/12/06 04:56:24;;;;;;;6.35;2.80;;;4.20;99.90;;;;;;5085590;28;20051;-85
2022/12/06 04:58:50;;;;;;;5.47;3.10;;;4.20;99.90;;;;;;5103803;28;20041;-85
2022/12/06 05:01:15;;;;;;;5.63;3.05;;;4.20;99.90;;;;;;5101427;28;20043;-85
2022/12/06 05:03:41;;;;;;;5.40;3.10;;;4.10;99.90;;;;;;5105361;28;20040;-85
2022/12/06 05:06:07;;;;;;;4.80;3.00;;;4.30;99.90;;;;;;5105417;28;20055;-85
2022/12/06 05:08:32;;;;;;;4.63;3.10;;;4.30;99.90;;;;;;5105191;28;20086;-86
2022/12/06 05:10:58;;;;;;;5.35;2.80;;;4.30;99.90;;;;;;5104022;28;20043;-85
2022/12/06 05:13:24;;;;;;;6.10;2.95;;;4.20;99.90;;;;;;5100858;28;20065;-85
2022/12/06 05:15:51;;;;;;;5.22;3.08;;;4.20;99.90;;;;;;5107600;28;20039;-85
2022/12/06 05:18:17;;;;;;;5.35;2.90;;;4.00;99.90;;;;;;5104610;28;20050;-85
2022/12/06 05:20:43;;;;;;;5.57;2.85;;;4.10;99.90;;;;;;5105390;28;20484;-85
2022/12/06 05:23:08;;;;;;;6.32;2.70;;;4.10;99.90;;;;;;5103714;28;20054;-85
2022/12/06 05:25:34;;;;;;;7.45;3.00;;;3.90;99.90;;;;;;5105458;28;20061;-86
2022/12/06 05:27:59;;;;;;;5.00;2.72;;;5.40;99.90;;;;;;5104260;28;20716;-85
2022/12/06 05:30:25;;;;;;;4.25;2.58;;;3.80;99.90;;;;;;5103618;28;20499;-85
2022/12/06 05:32:51;;;;;;;3.22;2.88;;;3.80;99.90;;;;;;5105139;28;20042;-86
2022/12/06 05:35:16;;;;;;;4.95;2.60;;;3.80;99.90;;;;;;5106293;28;20051;-85
2022/12/06 05:37:42;;;;;;;7.07;3.03;;;3.90;99.90;;;;;;5105652;28;20043;-86
2022/12/06 05:40:08;;;;;;;7.00;2.95;;;3.70;99.90;;;;;;5105287;28;20135;-86
2022/12/06 05:42:34;;;;;;;4.90;3.08;;;3.90;99.90;;;;;;5104803;28;20055;-86
2022/12/06 05:44:59;;;;;;;5.97;2.78;;;3.70;99.90;;;;;;5108385;28;20895;-85
2022/12/06 05:47:25;;;;;;;4.18;2.80;;;3.90;99.90;;;;;;5103849;28;20048;-85
2022/12/06 05:49:50;;;;;;;5.05;3.00;;;3.70;99.90;;;;;;5123883;28;20051;-85
2022/12/06 05:52:16;;;;;;;4.05;2.83;;;3.80;99.90;;;;;;5102820;28;20078;-85
2022/12/06 05:54:41;;;;;;;6.78;2.97;;;3.80;99.90;;;;;;5103322;28;20093;-86
2022/12/06 05:57:07;;;;;;;7.85;3.10;;;3.70;99.90;;;;;;5086505;28;20039;-85
2022/12/06 05:59:33;;;;;;;6.30;2.70;;;3.60;99.90;;;;;;5101429;28;20052;-85
2022/12/06 06:01:58;;;;;;;4.32;2.80;;;3.70;99.90;;;;;;5121669;28;20078;-86
2022/12/06 06:04:24;;;;;;;6.65;3.50;;;3.70;99.90;;;;;;5105011;28;20047;-85
2022/12/06 06:06:50;;;;;;;5.95;3.10;;;3.70;99.90;;;;;;5102120;28;20048;-85
2022/12/06 06:09:16;;;;;;;6.93;3.28;;;3.70;99.90;;;;;;5104699;28;20089;-85
2022/12/06 06:11:41;;;;;;;4.60;2.92;;;3.60;99.90;;;;;;5105341;28;20065;-86
2022/12/06 06:14:07;;;;;;;6.15;2.72;;;3.70;99.90;;;;;;5104654;28;20043;-86
2022/12/06 06:16:33;;;;;;;7.10;3.13;;;3.80;99.90;;;;;;5103123;28;20062;-86
2022/12/06 06:19:00;;;;;;;5.10;3.00;;;3.60;99.90;;;;;;5106254;28;20079;-85
2022/12/06 06:21:26;;;;;;;6.18;3.40;;;3.80;99.90;;;;;;5087003;28;20036;-85
2022/12/06 06:23:52;;;;;;;5.15;3.03;;;3.70;99.90;;;;;;5086046;28;20956;-86
2022/12/06 06:26:17;;;;;;;6.57;3.47;;;3.70;99.90;;;;;;5102490;28;20467;-85
2022/12/06 06:28:43;;;;;;;3.67;3.08;;;3.60;99.90;;;;;;5099645;28;20463;-85
2022/12/06 06:31:09;;;;;;;6.95;3.08;;;3.70;99.90;;;;;;5100700;28;20055;-85
2022/12/06 06:33:35;;;;;;;5.50;3.25;;;3.70;99.90;;;;;;5105277;28;20070;-86
2022/12/06 06:36:01;;;;;;;5.88;3.50;;;3.70;99.90;;;;;;5106573;27;20139;-86
2022/12/06 06:38:27;;;;;;;4.90;3.38;;;3.70;99.90;;;;;;5093083;28;20047;-85
2022/12/06 06:40:52;;;;;;;7.72;3.72;;;3.70;99.90;;;;;;5088002;28;20127;-84
2022/12/06 06:43:18;;;;;;;6.13;3.85;;;3.30;99.90;;;;;;5105005;28;20048;-85
2022/12/06 06:46:08;;;;;;;7.40;3.75;;;3.70;99.90;;;;;;5106541;27;20060;-84
2022/12/06 06:48:38;;;;;;;6.90;4.25;;;3.80;99.90;;;;;;5103701;27;20683;-84
2022/12/06 06:51:06;;;;;;;5.53;3.53;;;3.70;99.90;;;;;;5092019;28;20048;-84
2022/12/06 06:53:32;;;;;;;6.78;3.47;;;3.70;99.90;;;;;;5109738;28;20473;-83
2022/12/06 06:55:58;;;;;;;7.28;3.67;;;3.70;99.90;;;;;;5092341;28;20039;-83
2022/12/06 06:58:24;;;;;;;6.03;4.03;;;3.80;99.90;;;;;;5108906;28;20051;-84
2022/12/06 07:00:55;;;;;;;7.35;3.70;;;3.60;99.90;;;;;;5108592;28;20436;-85
2022/12/06 07:03:21;;;;;;;7.60;3.22;;;3.60;99.90;;;;;;5110532;28;20411;-84
2022/12/06 07:05:55;;;;;;;5.55;3.28;;;3.60;99.90;;;;;;5109229;28;20538;-85
2022/12/06 07:08:21;;;;;;;8.43;3.75;;;3.50;99.90;;;;;;5109540;28;20054;-85
2022/12/06 07:10:47;;;;;;;6.80;4.00;;;3.40;99.90;;;;;;5109022;28;20047;-84
2022/12/06 07:13:17;;;;;;;7.35;3.60;;;3.40;99.90;;;;;;5110583;28;20512;-84
2022/12/06 07:15:43;;;;;;;8.23;3.72;;;3.30;99.90;;;;;;5108832;28;20795;-84
2022/12/06 07:18:09;;;;;;;6.32;3.50;;;3.30;99.90;;;;;;5103875;27;20093;-85
2022/12/06 07:20:35;;;;;;;8.65;3.50;;;3.90;99.90;;;;;;5108864;28;20457;-85
2022/12/06 07:23:00;;;;;;;8.57;3.90;;;3.20;99.90;;;;;;5109754;28;20121;-84
2022/12/06 07:25:26;;;;;;;6.30;3.85;;;3.20;99.90;;;;;;5110789;28;20039;-85
2022/12/06 07:27:52;;;;;;;6.40;4.00;;;3.10;99.90;;;;;;5107560;28;20040;-86
2022/12/06 07:30:18;;;;;;;5.68;3.45;;;3.10;99.90;;;;;;5108560;28;20043;-85
2022/12/06 07:32:46;;;;;;;7.72;3.92;;;3.00;99.90;;;;;;5109252;28;20566;-84
2022/12/06 07:35:12;;;;;;;8.23;3.97;;;2.90;99.90;;;;;;5108736;28;20039;-84
2022/12/06 07:37:41;;;;;;;6.13;3.88;;;2.90;99.90;;;;;;5109190;28;20048;-86
2022/12/06 07:40:07;;;;;;;5.40;3.63;;;2.80;99.90;;;;;;5109134;28;20078;-86
2022/12/06 07:45:17;;;;;;;5.03;3.53;;;2.70;99.90;;;;;;5109824;28;20040;-86
2022/12/06 07:47:43;;;;;;;5.88;3.70;;;2.60;99.90;;;;;;5108096;28;20043;-86
2022/12/06 07:50:15;;;;;;;6.78;3.47;;;2.60;99.90;;;;;;5109125;28;20044;-87
2022/12/06 07:52:41;;;;;;;5.60;3.60;;;2.50;99.90;;;;;;5110994;28;20075;-86
2022/12/06 07:55:08;;;;;;;4.57;3.25;;;2.40;99.90;;;;;;5109438;28;20119;-85
2022/12/06 07:57:34;;;;;;;7.18;3.88;;;2.40;99.90;;;;;;5108333;28;20052;-87
2022/12/06 07:59:59;;;;;;;5.85;3.90;;;2.30;99.90;;;;;;5108128;28;20463;-87
2022/12/06 08:02:26;;;;;;;7.07;3.85;;;2.30;99.90;;;;;;5107135;28;20048;-87
2022/12/06 08:04:53;;;;;;;6.63;4.03;;;2.30;99.90;;;;;;5103030;28;20051;-86
2022/12/06 08:07:19;;;;;;;7.50;3.70;;;2.30;99.90;;;;;;5109318;27;20048;-86
2022/12/06 08:09:45;;;;;;;6.75;3.63;;;2.40;99.90;;;;;;5108642;28;20783;-84
2022/12/06 08:12:11;;;;;;;6.15;3.50;;;2.30;99.90;;;;;;5107755;28;20065;-85
2022/12/06 08:14:36;;;;;;;5.20;3.60;;;2.30;99.90;;;;;;5109928;28;20092;-86
2022/12/06 08:17:06;;;;;;;6.95;3.95;;;2.30;99.90;;;;;;5109702;28;20051;-85
2022/12/06 08:19:32;;;;;;;5.60;3.63;;;2.20;99.90;;;;;;5092027;28;20050;-85
2022/12/06 08:21:57;;;;;;;5.30;4.07;;;2.30;99.90;;;;;;5108277;28;20043;-86
2022/12/06 08:24:23;;;;;;;6.32;4.38;;;2.30;99.90;;;;;;5107856;28;20059;-86
2022/12/06 08:26:51;;;;;;;6.85;4.03;;;2.40;99.90;;;;;;5107279;28;20103;-86
2022/12/06 08:29:17;;;;;;;6.38;3.90;;;2.50;99.90;;;;;;5108243;28;20501;-83
2022/12/06 08:31:44;;;;;;;6.95;4.30;;;2.50;99.90;;;;;;5109663;28;20036;-87
2022/12/06 08:34:11;;;;;;;8.15;3.90;;;2.60;99.90;;;;;;5108078;28;20079;-85
2022/12/06 08:36:38;;;;;;;8.07;4.28;;;2.60;99.90;;;;;;5104064;28;20051;-86
2022/12/06 08:39:04;;;;;;;8.73;4.55;;;2.70;99.90;;;;;;5105960;28;20039;-85
2022/12/06 08:44:15;;;;;;;6.32;4.50;;;2.80;99.90;;;;;;5108254;28;20464;-86
2022/12/06 08:46:41;;;;;;;7.28;4.22;;;2.80;99.90;;;;;;5108121;28;20048;-88
2022/12/06 08:49:07;;;;;;;7.10;4.35;;;2.80;99.90;;;;;;5107533;28;20046;-87
2022/12/06 08:51:34;;;;;;;6.88;4.18;;;2.80;99.90;;;;;;5107183;28;20040;-86
2022/12/06 08:54:01;;;;;;;6.82;4.50;;;2.90;99.90;;;;;;5107287;28;20095;-86
2022/12/06 08:56:27;;;;;;;8.50;5.10;;;2.80;99.90;;;;;;5104526;28;20055;-84
2022/12/06 08:58:53;;;;;;;8.88;5.10;;;2.90;99.90;;;;;;5104525;28;20369;-85
2022/12/06 09:01:25;;;;;;;9.85;5.75;;;2.90;99.90;;;;;;5107117;28;20056;-86
2022/12/06 09:03:52;;;;;;;11.02;5.25;;;2.90;99.90;;;;;;5103604;27;20103;-86
2022/12/06 09:06:19;;;;;;;7.00;4.18;;;3.00;99.90;;;;;;5104197;28;20055;-88
2022/12/06 09:08:45;;;;;;;9.90;5.30;;;3.00;99.90;;;;;;5104042;27;20052;-88
2022/12/06 09:11:12;;;;;;;10.68;5.45;;;3.10;99.90;;;;;;5102896;27;20036;-87
2022/12/06 09:13:38;;;;;;;9.13;6.05;;;3.20;99.90;;;;;;5107305;28;20043;-86
2022/12/06 09:16:06;;;;;;;9.57;5.60;;;3.50;99.90;;;;;;5091030;28;20046;-89
2022/12/06 09:18:32;;;;;;;9.32;4.53;;;3.40;99.90;;;;;;5108291;28;20039;-88
2022/12/06 09:20:58;;;;;;;8.13;4.80;;;3.50;99.90;;;;;;5108522;27;20406;-88
2022/12/06 09:23:23;;;;;;;8.30;4.38;;;3.60;99.90;;;;;;5106709;27;20043;-87
2022/12/06 09:25:49;;;;;;;5.97;4.63;;;3.70;99.90;;;;;;5090534;28;20044;-87
2022/12/06 09:28:14;;;;;;;7.70;4.43;;;3.70;99.90;;;;;;5105110;28;20059;-87
2022/12/06 09:30:40;;;;;;;7.03;4.50;;;3.70;99.90;;;;;;5111213;28;20078;-87
2022/12/06 09:33:06;;;;;;;8.35;4.75;;;3.70;99.90;;;;;;5111516;28;20409;-86
2022/12/06 09:35:33;;;;;;;9.45;5.20;;;3.80;99.90;;;;;;5108522;28;20040;-87
2022/12/06 09:37:59;;;;;;;9.93;5.35;;;3.90;99.90;;;;;;5106072;28;20115;-86
2022/12/06 09:40:33;;;;;;;6.15;4.43;;;4.00;99.90;;;;;;5108051;28;20490;-88
2022/12/06 09:43:05;;;;;;;6.05;4.03;;;4.20;99.90;;;;;;5108730;28;20051;-87
2022/12/06 09:46:12;;;;;;;7.93;4.30;;;4.30;99.90;;;;;;5108053;28;20151;-87
2022/12/06 09:49:16;;;;;;;5.55;4.00;;;4.40;99.90;;;;;;5071355;28;20052;-88
2022/12/06 09:52:00;;;;;;;6.47;3.78;;;4.50;99.90;;;;;;5107430;28;20048;-88
2022/12/06 09:54:29;;;;;;;5.60;3.92;;;4.60;99.90;;;;;;5091225;28;20404;-87
2022/12/06 09:57:20;;;;;;;6.30;3.90;;;4.70;99.90;;;;;;5090446;28;20043;-87
2022/12/06 10:00:11;;;;;;;6.90;4.00;;;4.70;99.90;;;;;;5097976;28;20108;-86
2022/12/06 10:03:07;;;;;;;6.72;3.47;;;4.70;99.90;;;;;;5107064;28;20415;-87
2022/12/06 10:05:53;;;;;;;5.05;3.25;;;4.80;99.90;;;;;;5107501;28;20064;-88
2022/12/06 10:08:31;;;;;;;5.72;3.00;;;4.80;99.90;;;;;;5107264;28;20083;-87
2022/12/06 10:11:20;;;;;;;4.47;3.15;;;4.90;99.90;;;;;;5110631;28;20083;-88
2022/12/06 10:14:03;;;;;;;6.13;3.22;;;4.90;99.90;;;;;;5077031;28;20056;-87
2022/12/06 10:16:37;;;;;;;5.28;3.15;;;5.00;99.90;;;;;;5083978;28;20507;-86
2022/12/06 10:19:32;;;;;;;4.93;3.42;;;5.00;99.90;;;;;;5093998;28;20081;-85
2022/12/06 10:22:17;;;;;;;6.57;3.38;;;5.00;99.90;;;;;;5093474;28;20079;-84
2022/12/06 10:25:01;;;;;;;4.85;3.08;;;5.00;99.90;;;;;;5110609;28;20068;-85
2022/12/06 10:27:38;;;;;;;4.05;3.10;;;4.90;99.90;;;;;;5110313;28;20044;-86
2022/12/06 10:30:09;;;;;;;6.85;2.90;;;4.80;99.90;;;;;;5112055;28;20584;-85
2022/12/06 10:32:47;;;;;;;3.15;2.78;;;4.70;99.90;;;;;;5109512;28;20089;-86
2022/12/06 10:35:40;;;;;;;5.25;3.53;;;4.70;99.90;;;;;;5109680;28;20438;-84
2022/12/06 10:38:22;;;;;;;5.75;3.25;;;4.70;99.90;;;;;;5107120;28;20199;-84
2022/12/06 10:40:53;;;;;;;3.78;3.13;;;4.70;99.90;;;;;;5112209;28;20059;-86
2022/12/06 10:43:34;;;;;;;4.88;3.67;;;5.40;99.90;;;;;;5111674;28;20040;-86
2022/12/06 10:49:19;;;;;;;6.93;3.08;;;4.70;99.90;;;;;;5112253;28;20052;-87
2022/12/06 10:51:52;;;;;;;7.07;3.08;;;4.90;99.90;;;;;;5111310;28;20035;-85
2022/12/06 10:54:33;;;;;;;4.07;2.67;;;4.90;99.90;;;;;;5110065;28;20123;-84
2022/12/06 10:57:03;;;;;;;6.28;3.28;;;5.30;99.90;;;;;;5110238;28;20074;-85
2022/12/06 10:59:42;;;;;;;7.32;4.40;;;5.10;99.90;;;;;;5109508;28;20069;-84
2022/12/06 11:02:52;;;;;;;7.15;3.65;;;5.20;99.90;;;;;;5109542;28;20151;-85
2022/12/06 11:05:33;;;;;;;6.57;3.13;;;5.50;99.90;;;;;;5050861;28;20057;-84
2022/12/06 11:08:09;;;;;;;4.18;3.13;;;5.40;99.90;;;;;;5058307;28;20735;-84
2022/12/06 11:10:38;;;;;;;4.50;2.88;;;5.50;99.90;;;;;;5075866;28;20044;-86
2022/12/06 11:13:34;;;;;;;5.07;2.50;;;5.60;99.90;;;;;;5099858;28;20069;-84
2022/12/06 11:16:09;;;;;;;4.90;2.70;;;5.70;99.90;;;;;;5106941;28;20443;-85
2022/12/06 11:18:35;;;;;;;3.78;2.70;;;5.80;99.90;;;;;;5108860;28;20058;-85
2022/12/06 11:21:03;;;;;;;4.40;2.50;;;5.80;99.90;;;;;;5108870;28;20044;-85
2022/12/06 11:24:00;;;;;;;5.57;2.92;;;5.90;99.90;;;;;;5107362;28;20154;-86
2022/12/06 11:26:42;;;;;;;6.95;2.92;;;5.90;99.90;;;;;;5107433;28;20055;-86
2022/12/06 11:29:13;;;;;;;3.63;2.70;;;5.90;99.90;;;;;;5090171;28;20086;-85
2022/12/06 11:31:51;;;;;;;3.72;2.53;;;6.00;99.90;;;;;;5101287;28;20104;-86
2022/12/06 11:34:25;;;;;;;2.90;2.40;;;6.10;99.90;;;;;;5110396;28;20059;-86
2022/12/06 11:36:55;;;;;;;4.20;2.60;;;6.10;99.90;;;;;;5109214;28;20093;-85
2022/12/06 11:39:22;;;;;;;3.70;2.70;;;6.10;99.90;;;;;;5106632;28;20066;-86
2022/12/06 11:41:52;;;;;;;3.80;2.40;;;6.00;99.90;;;;;;5107130;28;20051;-85
2022/12/06 11:44:21;;;;;;;5.72;2.88;;;5.90;99.90;;;;;;5091806;28;20391;-85
2022/12/06 11:46:53;;;;;;;5.78;2.72;;;6.30;99.90;;;;;;5108492;28;20088;-84
2022/12/06 11:49:33;;;;;;;4.57;2.55;;;5.90;99.90;;;;;;5108308;28;20321;-86
2022/12/06 11:52:09;;;;;;;3.05;2.28;;;5.90;99.90;;;;;;5108803;28;20197;-86
2022/12/06 11:54:43;;;;;;;6.82;2.75;;;5.90;99.90;;;;;;5092048;28;20128;-86
2022/12/06 11:57:18;;;;;;;2.58;2.38;;;6.00;99.90;;;;;;5107044;28;20051;-86
2022/12/06 12:00:13;;;;;;;4.63;2.20;;;6.10;99.90;;;;;;5091928;28;20049;-87
2022/12/06 12:02:41;;;;;;;3.20;2.45;;;6.20;99.90;;;;;;5105722;28;20051;-85
2022/12/06 12:05:08;;;;;;;4.75;2.30;;;6.20;99.90;;;;;;5107448;27;20073;-84
2022/12/06 12:07:34;;;;;;;3.55;2.28;;;6.30;99.90;;;;;;5108811;28;20058;-84
2022/12/06 12:10:29;;;;;;;4.60;2.10;;;6.30;99.90;;;;;;5110665;28;20132;-84
2022/12/06 12:16:21;;;;;;;4.05;2.17;;;6.30;99.90;;;;;;5108882;28;20048;-84
2022/12/06 12:19:00;;;;;;;3.63;1.88;;;6.50;99.90;;;;;;5091648;28;20055;-85
2022/12/06 12:21:44;;;;;;;3.42;1.98;;;6.50;99.90;;;;;;5105976;28;20058;-84
2022/12/06 12:24:42;;;;;;;3.85;2.00;;;6.20;99.90;;;;;;5106782;28;20031;-83
2022/12/06 12:27:40;;;;;;;5.80;2.10;;;6.50;99.90;;;;;;5087853;28;20052;-83
2022/12/06 12:30:17;;;;;;;2.63;2.42;;;6.50;99.90;;;;;;5108093;28;20054;-83
2022/12/06 12:32:44;;;;;;;2.13;1.77;;;6.50;99.90;;;;;;5108497;27;20055;-84
2022/12/06 12:35:19;;;;;;;4.00;2.25;;;6.50;99.90;;;;;;5107874;28;20044;-84
2022/12/06 12:37:50;;;;;;;3.22;1.77;;;6.50;99.90;;;;;;5104952;28;20209;-84
2022/12/06 12:40:44;;;;;;;3.72;1.90;;;6.50;99.90;;;;;;5107709;28;20058;-85
2022/12/06 12:43:10;;;;;;;4.03;2.08;;;6.50;99.90;;;;;;5086980;28;20083;-84
2022/12/06 12:45:39;;;;;;;4.78;2.03;;;6.50;99.90;;;;;;5095026;28;20077;-84
2022/12/06 12:48:24;;;;;;;4.78;1.88;;;6.50;99.90;;;;;;5107130;28;20087;-85
2022/12/06 12:50:58;;;;;;;2.55;1.90;;;6.50;99.90;;;;;;5105479;28;20048;-85
2022/12/06 12:53:30;;;;;;;3.25;2.17;;;6.50;99.90;;;;;;5086289;28;20055;-84
2022/12/06 12:56:14;;;;;;;4.00;1.63;;;6.50;99.90;;;;;;5097596;28;20140;-85
2022/12/06 12:58:41;;;;;;;3.22;2.03;;;6.40;99.90;;;;;;5108985;28;20044;-85
2022/12/06 13:01:22;;;;;;;4.38;2.25;;;6.40;99.90;;;;;;5106854;28;20044;-84
2022/12/06 13:03:53;;;;;;;5.28;2.10;;;6.30;99.90;;;;;;5107865;28;20058;-84
2022/12/06 13:06:41;;;;;;;3.40;1.90;;;6.30;99.90;;;;;;5106851;28;20126;-85
2022/12/06 13:09:15;;;;;;;3.35;2.08;;;6.30;99.90;;;;;;5105072;28;20482;-85
2022/12/06 13:11:45;;;;;;;3.47;1.90;;;6.30;99.90;;;;;;5097495;28;20058;-84
2022/12/06 13:14:18;;;;;;;4.45;2.08;;;6.30;99.90;;;;;;5094980;28;20140;-86
2022/12/06 13:16:47;;;;;;;5.25;2.22;;;6.30;99.90;;;;;;5080584;28;20118;-85
2022/12/06 13:19:34;;;;;;;2.72;2.08;;;6.40;99.90;;;;;;5107254;28;20107;-84
2022/12/06 13:22:13;;;;;;;2.58;1.90;;;6.70;99.90;;;;;;5108132;28;20090;-84
2022/12/06 13:24:43;;;;;;;4.50;2.00;;;6.40;99.90;;;;;;5091027;28;20093;-83
2022/12/06 13:27:16;;;;;;;2.95;1.65;;;6.50;99.90;;;;;;5105887;28;20035;-83
2022/12/06 13:29:57;;;;;;;3.85;1.70;;;6.50;99.90;;;;;;5099446;28;20068;-85
2022/12/06 13:32:41;;;;;;;3.20;1.77;;;6.60;99.90;;;;;;5102911;28;20925;-83
2022/12/06 13:35:32;;;;;;;3.10;1.70;;;6.60;99.90;;;;;;5087195;28;20048;-88
2022/12/06 13:38:18;;;;;;;2.90;1.58;;;6.60;99.90;;;;;;5087145;28;20178;-87
2022/12/06 13:40:48;;;;;;;2.08;1.83;;;6.40;99.90;;;;;;5086769;28;20394;-87
2022/12/06 13:43:23;;;;;;;4.45;1.63;;;5.80;99.90;;;;;;5087977;28;20098;-87
2022/12/06 13:46:19;;;;;;;4.28;1.70;;;7.60;99.90;;;;;;5106847;28;20051;-86
2022/12/06 13:49:24;;;;;;;2.45;1.40;;;6.40;99.90;;;;;;5086712;28;20086;-85
2022/12/06 13:51:50;;;;;;;2.20;1.50;;;6.40;99.90;;;;;;5064714;28;20498;-88
2022/12/06 13:54:15;;;;;;;2.67;1.58;;;6.10;99.90;;;;;;5072552;28;20040;-88
2022/12/06 13:56:41;;;;;;;7.50;1.80;;;6.20;99.90;;;;;;5070310;28;20040;-90